Time;durP1;ratioP1;P1;durP2;ratioP2;P2;SDS_P1;SDS_P2;PMS_P1;PMS_P2;Temp;Humidity;BMP_temperature;BMP_pressure;BME280_temperature;BME280_humidity;BME280_pressure;Samples;Min_cycle;Max_cycle;Signal;HPM_P1;HPM_P2
2020/12/04 00:01:29;;;;;;;11.40;7.30;;;5.60;92.70;;;;;;5013752;28;20033;-85
2020/12/04 00:03:55;;;;;;;11.63;8.05;;;5.60;92.80;;;;;;5013436;28;20049;-85
2020/12/04 00:06:21;;;;;;;10.57;7.15;;;5.60;92.50;;;;;;4992821;28;20038;-84
2020/12/04 00:08:46;;;;;;;11.82;7.28;;;5.70;92.70;;;;;;4985041;28;20034;-85
2020/12/04 00:11:12;;;;;;;13.75;8.35;;;5.60;92.60;;;;;;5011685;28;20038;-84
2020/12/04 00:13:38;;;;;;;11.50;7.65;;;5.60;92.40;;;;;;5013274;28;20030;-85
2020/12/04 00:16:03;;;;;;;8.98;6.32;;;5.60;92.50;;;;;;5026537;28;20037;-84
2020/12/04 00:18:29;;;;;;;10.38;6.80;;;5.60;92.40;;;;;;5013350;28;20049;-84
2020/12/04 00:20:55;;;;;;;10.40;7.28;;;5.60;92.50;;;;;;4999547;28;20027;-85
2020/12/04 00:23:21;;;;;;;10.10;6.90;;;5.60;92.30;;;;;;4992211;28;20493;-85
2020/12/04 00:25:46;;;;;;;10.73;7.07;;;5.60;92.10;;;;;;5003994;28;20034;-85
2020/12/04 00:28:12;;;;;;;10.13;6.85;;;5.60;92.20;;;;;;4996278;28;20057;-84
2020/12/04 00:30:38;;;;;;;11.55;7.43;;;5.50;92.20;;;;;;5012567;28;20030;-85
2020/12/04 00:33:04;;;;;;;10.90;7.00;;;5.60;92.00;;;;;;4982715;28;20038;-84
2020/12/04 00:35:30;;;;;;;10.70;7.25;;;5.50;92.10;;;;;;4996664;28;20065;-85
2020/12/04 00:37:55;;;;;;;9.98;6.82;;;5.50;92.20;;;;;;5011904;28;20034;-85
2020/12/04 00:40:21;;;;;;;11.98;8.15;;;5.50;92.10;;;;;;4998604;28;20029;-85
2020/12/04 00:42:47;;;;;;;10.25;6.82;;;5.60;92.30;;;;;;4996150;28;20022;-84
2020/12/04 00:45:16;;;;;;;11.00;6.82;;;5.60;92.20;;;;;;4998074;28;20057;-85
2020/12/04 00:47:42;;;;;;;11.40;7.40;;;5.60;92.20;;;;;;4992649;28;20034;-84
2020/12/04 00:50:08;;;;;;;9.93;7.00;;;5.60;92.10;;;;;;5012863;28;20029;-86
2020/12/04 00:52:34;;;;;;;9.32;6.85;;;5.50;92.30;;;;;;5025123;28;20516;-84
2020/12/04 00:55:00;;;;;;;10.73;6.93;;;5.60;92.30;;;;;;5011978;28;20521;-85
2020/12/04 00:57:25;;;;;;;10.93;7.05;;;5.60;92.30;;;;;;5012021;28;20026;-85
2020/12/04 00:59:51;;;;;;;11.68;7.43;;;5.60;92.40;;;;;;5005648;28;20022;-85
2020/12/04 01:02:17;;;;;;;11.20;7.10;;;5.60;92.10;;;;;;5005778;28;20076;-84
2020/12/04 01:04:43;;;;;;;10.63;7.45;;;5.60;92.20;;;;;;5013857;28;20482;-85
2020/12/04 01:07:09;;;;;;;10.30;6.95;;;5.60;92.30;;;;;;5012277;28;20042;-84
2020/12/04 01:09:34;;;;;;;9.95;6.95;;;5.60;92.30;;;;;;4997250;28;20030;-84
2020/12/04 01:12:01;;;;;;;10.95;6.93;;;5.60;92.20;;;;;;4992860;28;20754;-84
2020/12/04 01:14:28;;;;;;;10.95;7.57;;;5.60;92.00;;;;;;5007596;28;20091;-85
2020/12/04 01:16:54;;;;;;;10.70;7.35;;;5.60;92.00;;;;;;4996003;28;20022;-85
2020/12/04 01:19:19;;;;;;;10.93;7.38;;;5.60;92.30;;;;;;5012160;28;20037;-85
2020/12/04 01:21:51;;;;;;;10.63;7.45;;;5.60;91.90;;;;;;5012528;28;20454;-84
2020/12/04 01:24:18;;;;;;;11.00;8.18;;;5.60;92.00;;;;;;4993021;28;20065;-84
2020/12/04 01:26:44;;;;;;;9.77;7.18;;;5.50;91.90;;;;;;5010948;28;20026;-84
2020/12/04 01:29:09;;;;;;;10.05;7.18;;;5.50;91.80;;;;;;5001474;28;20176;-85
2020/12/04 01:31:35;;;;;;;10.15;6.97;;;5.60;91.90;;;;;;5008173;28;20121;-85
2020/12/04 01:34:01;;;;;;;12.52;7.13;;;5.50;91.80;;;;;;5004581;28;20091;-83
2020/12/04 01:36:27;;;;;;;10.27;6.97;;;5.50;91.90;;;;;;4992712;28;20526;-85
2020/12/04 01:38:53;;;;;;;10.32;6.82;;;5.50;92.10;;;;;;4992297;28;20057;-84
2020/12/04 01:41:19;;;;;;;10.88;6.70;;;5.60;92.00;;;;;;5004745;28;20029;-84
2020/12/04 01:43:45;;;;;;;11.05;7.22;;;5.60;92.10;;;;;;4995542;28;20496;-85
2020/12/04 01:46:13;;;;;;;11.18;7.00;;;5.60;92.10;;;;;;4995371;28;20119;-83
2020/12/04 01:48:38;;;;;;;10.45;6.20;;;5.60;92.30;;;;;;4995344;28;20393;-84
2020/12/04 01:51:05;;;;;;;10.60;6.88;;;5.60;92.10;;;;;;5011491;28;20034;-84
2020/12/04 01:53:31;;;;;;;10.13;6.38;;;5.60;92.00;;;;;;4991728;28;20030;-85
2020/12/04 01:55:56;;;;;;;9.60;6.57;;;5.60;92.10;;;;;;4989297;28;20041;-85
2020/12/04 01:58:22;;;;;;;9.65;6.10;;;5.50;92.10;;;;;;5001961;28;20034;-85
2020/12/04 02:00:48;;;;;;;8.57;6.10;;;5.60;92.20;;;;;;4992126;28;20061;-84
2020/12/04 02:03:14;;;;;;;9.45;6.15;;;5.60;92.10;;;;;;4978879;28;20100;-85
2020/12/04 02:05:47;;;;;;;9.63;6.35;;;5.60;92.20;;;;;;4998426;28;20032;-85
2020/12/04 02:08:43;;;;;;;10.05;6.32;;;5.60;92.30;;;;;;4992984;28;20038;-84
2020/12/04 02:11:20;;;;;;;10.75;6.90;;;5.60;92.30;;;;;;4993680;28;20057;-84
2020/12/04 02:13:48;;;;;;;9.60;6.38;;;5.60;92.50;;;;;;5002222;28;20105;-84
2020/12/04 02:16:23;;;;;;;8.90;6.32;;;5.50;92.40;;;;;;5006990;28;20036;-85
2020/12/04 02:18:50;;;;;;;9.25;6.50;;;5.50;92.80;;;;;;4994661;28;20589;-85
2020/12/04 02:21:16;;;;;;;9.23;6.20;;;5.50;92.60;;;;;;4998403;28;20066;-84
2020/12/04 02:23:48;;;;;;;8.93;6.25;;;5.50;92.70;;;;;;5006814;28;20462;-85
2020/12/04 02:26:17;;;;;;;10.52;6.22;;;5.60;92.80;;;;;;5007655;28;20022;-84
2020/12/04 02:28:42;;;;;;;12.18;5.88;;;5.60;92.70;;;;;;5003536;28;20021;-85
2020/12/04 02:31:08;;;;;;;10.20;6.03;;;5.60;92.70;;;;;;4975003;28;20030;-84
2020/12/04 02:33:34;;;;;;;11.35;6.72;;;5.60;92.60;;;;;;4994640;28;20030;-84
2020/12/04 02:36:01;;;;;;;10.05;6.88;;;5.50;92.70;;;;;;5012726;28;20033;-85
2020/12/04 02:38:27;;;;;;;9.75;6.13;;;5.50;92.90;;;;;;4995229;28;20390;-84
2020/12/04 02:40:53;;;;;;;9.77;7.18;;;5.50;92.90;;;;;;4997986;28;20026;-85
2020/12/04 02:43:20;;;;;;;9.43;6.60;;;5.50;93.00;;;;;;5004242;28;20034;-85
2020/12/04 02:45:46;;;;;;;10.30;6.78;;;5.50;93.00;;;;;;4992238;28;20061;-85
2020/12/04 02:48:12;;;;;;;9.57;6.32;;;5.60;93.00;;;;;;4995232;28;20500;-85
2020/12/04 02:50:38;;;;;;;9.70;5.78;;;5.60;93.00;;;;;;5010894;28;20030;-84
2020/12/04 02:53:04;;;;;;;9.75;5.68;;;5.60;93.10;;;;;;5011248;28;20030;-83
2020/12/04 02:55:30;;;;;;;10.25;6.68;;;5.60;93.00;;;;;;4987738;28;20088;-85
2020/12/04 02:57:59;;;;;;;8.30;5.53;;;5.60;93.00;;;;;;5004406;28;20426;-85
2020/12/04 03:00:26;;;;;;;7.82;5.03;;;5.60;93.00;;;;;;5012093;28;20049;-85
2020/12/04 03:02:51;;;;;;;8.25;5.35;;;5.60;93.00;;;;;;4994796;28;20478;-85
2020/12/04 03:05:17;;;;;;;8.82;5.93;;;5.60;93.00;;;;;;5009744;28;20052;-85
2020/12/04 03:07:42;;;;;;;8.68;5.32;;;5.60;92.90;;;;;;5010513;28;20145;-85
2020/12/04 03:10:08;;;;;;;8.05;5.30;;;5.60;92.90;;;;;;5005428;28;20026;-84
2020/12/04 03:12:36;;;;;;;11.38;5.97;;;5.60;92.90;;;;;;5003338;28;20527;-84
2020/12/04 03:15:02;;;;;;;8.13;5.43;;;5.60;92.90;;;;;;5007042;28;20386;-85
2020/12/04 03:17:28;;;;;;;8.93;5.63;;;5.60;92.90;;;;;;5010213;28;20030;-85
2020/12/04 03:19:55;;;;;;;8.35;5.70;;;5.60;92.80;;;;;;4980432;28;20474;-84
2020/12/04 03:22:21;;;;;;;7.90;5.38;;;5.60;92.90;;;;;;5021017;28;20085;-84
2020/12/04 03:24:46;;;;;;;8.77;6.18;;;5.60;92.90;;;;;;4996731;28;20121;-85
2020/12/04 03:27:12;;;;;;;7.82;5.10;;;5.60;92.90;;;;;;4990278;28;20073;-85
2020/12/04 03:29:38;;;;;;;8.77;5.75;;;5.70;92.90;;;;;;5005065;28;20034;-85
2020/12/04 03:32:04;;;;;;;8.75;5.93;;;5.60;92.80;;;;;;5009883;28;20030;-84
2020/12/04 03:34:29;;;;;;;8.05;5.72;;;5.60;92.90;;;;;;5010159;28;20057;-84
2020/12/04 03:36:56;;;;;;;8.27;5.43;;;5.60;92.70;;;;;;5011482;28;20033;-85
2020/12/04 03:39:22;;;;;;;7.97;5.25;;;5.60;92.70;;;;;;5010368;28;20462;-84
2020/12/04 03:41:48;;;;;;;9.45;5.95;;;5.60;92.90;;;;;;4993706;28;20033;-84
2020/12/04 03:44:13;;;;;;;8.30;5.35;;;5.60;92.70;;;;;;5002943;28;20121;-84
2020/12/04 03:46:39;;;;;;;7.80;5.60;;;5.60;92.70;;;;;;5001906;28;20049;-84
2020/12/04 03:49:05;;;;;;;8.13;5.40;;;5.60;92.70;;;;;;5011115;28;20037;-85
2020/12/04 03:51:30;;;;;;;7.80;5.20;;;5.60;92.80;;;;;;4977550;28;20121;-83
2020/12/04 03:53:56;;;;;;;7.45;5.18;;;5.60;92.70;;;;;;5009608;28;20113;-84
2020/12/04 03:56:21;;;;;;;9.05;5.45;;;5.60;92.80;;;;;;4996561;28;20034;-83
2020/12/04 03:58:47;;;;;;;9.20;5.30;;;5.60;92.70;;;;;;4994183;28;20030;-84
2020/12/04 04:01:13;;;;;;;8.82;5.15;;;5.60;92.70;;;;;;4999866;28;20030;-85
2020/12/04 04:03:38;;;;;;;7.82;5.28;;;5.70;92.60;;;;;;4997204;28;20490;-85
2020/12/04 04:06:05;;;;;;;7.68;5.18;;;5.70;92.70;;;;;;5010510;28;20042;-85
2020/12/04 04:08:30;;;;;;;8.13;5.18;;;5.60;92.60;;;;;;4984840;28;20390;-84
2020/12/04 04:10:59;;;;;;;8.23;5.13;;;5.60;92.60;;;;;;5011467;28;20034;-84
2020/12/04 04:13:25;;;;;;;7.05;4.78;;;5.70;92.70;;;;;;5003168;28;20034;-84
2020/12/04 04:15:51;;;;;;;6.88;5.00;;;5.70;92.80;;;;;;4998546;28;20043;-83
2020/12/04 04:18:16;;;;;;;7.57;4.80;;;5.70;92.80;;;;;;5011104;28;20673;-84
2020/12/04 04:20:42;;;;;;;7.35;4.70;;;5.70;92.90;;;;;;4996592;28;20022;-84
2020/12/04 04:23:08;;;;;;;6.65;4.63;;;5.70;93.00;;;;;;5012819;28;20037;-84
2020/12/04 04:25:33;;;;;;;8.13;4.65;;;5.70;92.90;;;;;;4996880;28;20056;-84
2020/12/04 04:27:59;;;;;;;6.72;4.43;;;5.70;93.00;;;;;;5012924;28;20026;-84
2020/12/04 04:30:25;;;;;;;5.72;4.05;;;5.70;93.00;;;;;;5012422;28;20470;-84
2020/12/04 04:32:50;;;;;;;6.90;4.47;;;5.70;92.90;;;;;;5012833;28;20105;-84
2020/12/04 04:35:16;;;;;;;6.60;4.10;;;5.70;92.90;;;;;;4997435;28;20069;-85
2020/12/04 04:37:43;;;;;;;7.15;4.45;;;5.80;92.90;;;;;;4997343;28;20042;-85
2020/12/04 04:40:09;;;;;;;7.03;4.40;;;5.80;92.90;;;;;;5013025;28;20095;-84
2020/12/04 04:42:35;;;;;;;6.18;4.15;;;5.80;92.80;;;;;;5003039;28;20029;-84
2020/12/04 04:45:03;;;;;;;7.03;4.10;;;5.80;92.70;;;;;;4994663;28;20046;-83
2020/12/04 04:47:30;;;;;;;6.72;4.10;;;5.80;92.70;;;;;;5012216;28;20034;-85
2020/12/04 04:49:57;;;;;;;6.80;4.20;;;5.80;92.70;;;;;;5012669;28;20026;-85
2020/12/04 04:52:24;;;;;;;5.55;3.67;;;5.70;92.60;;;;;;5012626;28;20112;-85
2020/12/04 04:54:50;;;;;;;6.18;4.47;;;5.80;92.70;;;;;;5013300;28;20025;-85
2020/12/04 04:57:23;;;;;;;6.65;4.63;;;5.80;92.60;;;;;;5008124;28;20019;-84
2020/12/04 04:59:49;;;;;;;7.50;4.05;;;5.80;92.60;;;;;;4993141;28;20064;-85
2020/12/04 05:02:15;;;;;;;6.53;4.40;;;5.80;92.50;;;;;;5007350;28;20081;-84
2020/12/04 05:04:50;;;;;;;7.18;4.60;;;5.90;92.60;;;;;;5012681;28;20038;-86
2020/12/04 05:07:29;;;;;;;5.25;3.78;;;5.90;92.40;;;;;;5010807;28;20033;-85
2020/12/04 05:10:20;;;;;;;5.60;3.90;;;5.80;92.40;;;;;;5012243;28;20486;-85
2020/12/04 05:13:00;;;;;;;7.35;4.38;;;5.90;92.30;;;;;;5012328;28;20045;-83
2020/12/04 05:15:28;;;;;;;6.40;4.13;;;5.80;92.30;;;;;;5011847;28;20164;-85
2020/12/04 05:18:14;;;;;;;6.45;4.40;;;5.80;92.20;;;;;;5012423;28;20029;-84
2020/12/04 05:20:52;;;;;;;6.38;4.25;;;5.80;92.20;;;;;;4980370;28;20033;-84
2020/12/04 05:23:18;;;;;;;5.65;3.83;;;5.80;92.20;;;;;;4991708;28;20037;-85
2020/12/04 05:25:47;;;;;;;5.70;4.00;;;5.80;92.30;;;;;;5012516;28;20029;-85
2020/12/04 05:28:16;;;;;;;6.30;3.90;;;5.80;92.00;;;;;;5012367;28;20099;-85
2020/12/04 05:30:44;;;;;;;6.05;3.90;;;5.80;92.00;;;;;;5006447;28;20018;-85
2020/12/04 05:33:11;;;;;;;5.57;3.47;;;5.80;92.10;;;;;;5004933;28;20026;-85
2020/12/04 05:35:38;;;;;;;6.80;3.88;;;5.80;92.40;;;;;;4994913;28;20500;-86
2020/12/04 05:38:09;;;;;;;5.00;3.60;;;5.80;92.00;;;;;;4995624;28;20499;-85
2020/12/04 05:40:36;;;;;;;6.20;4.05;;;5.90;92.20;;;;;;5026620;28;20081;-85
2020/12/04 05:43:03;;;;;;;5.82;3.70;;;5.90;92.00;;;;;;5012313;28;20033;-85
2020/12/04 05:45:29;;;;;;;6.97;4.05;;;5.90;92.10;;;;;;4981247;28;20053;-85
2020/12/04 05:47:55;;;;;;;6.57;3.80;;;5.90;91.80;;;;;;5013092;28;20025;-85
2020/12/04 05:50:21;;;;;;;5.72;3.80;;;5.90;91.90;;;;;;5011358;28;20114;-85
2020/12/04 05:52:48;;;;;;;5.72;3.60;;;5.90;91.80;;;;;;4995978;28;20112;-85
2020/12/04 05:55:15;;;;;;;5.90;3.70;;;5.90;92.10;;;;;;5013569;28;20057;-85
2020/12/04 05:57:44;;;;;;;5.15;3.55;;;5.90;91.90;;;;;;5011316;28;20105;-85
2020/12/04 06:00:10;;;;;;;4.43;2.97;;;5.90;91.80;;;;;;5012330;28;20041;-85
2020/12/04 06:02:38;;;;;;;4.68;3.05;;;5.90;92.00;;;;;;5009898;28;20137;-85
2020/12/04 06:05:04;;;;;;;5.53;3.35;;;5.90;91.90;;;;;;5001631;28;20050;-85
2020/12/04 06:07:29;;;;;;;4.85;3.22;;;6.00;92.10;;;;;;5010316;28;20453;-85
2020/12/04 06:09:59;;;;;;;4.53;3.30;;;6.00;91.90;;;;;;4983553;28;20057;-85
2020/12/04 06:12:24;;;;;;;5.20;3.15;;;6.00;91.80;;;;;;4996711;28;20387;-86
2020/12/04 06:14:51;;;;;;;5.22;3.25;;;6.00;91.70;;;;;;5000063;28;20093;-86
2020/12/04 06:17:16;;;;;;;4.85;3.30;;;6.00;91.60;;;;;;5024360;28;20079;-86
2020/12/04 06:19:44;;;;;;;5.30;3.10;;;6.00;91.50;;;;;;4995533;28;20034;-86
2020/12/04 06:22:17;;;;;;;5.07;3.10;;;6.00;91.70;;;;;;5012596;28;20030;-86
2020/12/04 06:24:52;;;;;;;4.95;3.28;;;6.00;91.80;;;;;;5012218;28;20121;-86
2020/12/04 06:27:39;;;;;;;5.05;3.15;;;6.10;91.70;;;;;;5012840;28;20064;-86
2020/12/04 06:30:07;;;;;;;4.38;2.90;;;6.00;91.60;;;;;;5017881;28;20378;-86
2020/12/04 06:32:51;;;;;;;4.65;3.00;;;6.10;91.80;;;;;;5010813;28;20124;-86
2020/12/04 06:35:39;;;;;;;4.80;3.17;;;6.10;91.70;;;;;;5010353;28;20914;-87
2020/12/04 06:38:05;;;;;;;4.03;2.72;;;6.10;91.80;;;;;;5012713;28;20029;-86
2020/12/04 06:40:31;;;;;;;5.20;3.13;;;6.10;91.70;;;;;;5011013;28;20080;-86
2020/12/04 06:43:01;;;;;;;5.30;3.33;;;6.10;91.80;;;;;;4991613;28;20375;-86
2020/12/04 06:45:47;;;;;;;4.00;2.80;;;6.10;91.80;;;;;;5024169;28;20022;-86
2020/12/04 06:48:17;;;;;;;5.13;2.88;;;6.10;91.60;;;;;;5010570;28;20018;-86
2020/12/04 06:50:48;;;;;;;4.68;2.85;;;6.20;91.70;;;;;;5012478;28;20014;-86
2020/12/04 06:53:15;;;;;;;5.38;3.10;;;6.20;91.80;;;;;;5012267;28;20022;-86
2020/12/04 06:55:42;;;;;;;4.88;3.00;;;6.30;91.70;;;;;;5010979;28;20386;-86
2020/12/04 06:58:08;;;;;;;4.80;3.00;;;6.30;91.80;;;;;;5011148;28;20045;-86
2020/12/04 07:00:34;;;;;;;4.22;2.80;;;6.30;91.80;;;;;;5005849;28;20028;-85
2020/12/04 07:03:01;;;;;;;4.47;2.60;;;6.30;91.90;;;;;;5005388;28;20080;-86
2020/12/04 07:05:28;;;;;;;4.45;2.90;;;6.30;91.70;;;;;;5006739;28;20466;-86
2020/12/04 07:08:08;;;;;;;4.28;2.70;;;6.30;91.60;;;;;;5001839;28;20054;-87
2020/12/04 07:10:35;;;;;;;5.00;2.90;;;6.40;91.60;;;;;;5009393;28;20121;-85
2020/12/04 07:13:05;;;;;;;4.47;2.78;;;6.40;91.70;;;;;;4996857;28;20117;-86
2020/12/04 07:15:32;;;;;;;4.03;2.80;;;6.40;91.40;;;;;;5010742;28;20030;-86
2020/12/04 07:17:59;;;;;;;4.00;2.40;;;6.40;91.60;;;;;;5011654;28;20034;-86
2020/12/04 07:20:32;;;;;;;5.50;2.90;;;6.50;91.70;;;;;;4995198;28;20121;-87
2020/12/04 07:22:57;;;;;;;3.55;2.45;;;6.50;91.70;;;;;;5012735;28;20017;-86
2020/12/04 07:25:23;;;;;;;4.53;2.72;;;6.50;91.40;;;;;;4975463;28;20074;-84
2020/12/04 07:27:48;;;;;;;4.70;2.53;;;6.50;91.40;;;;;;5003624;28;20038;-86
2020/12/04 07:30:15;;;;;;;4.25;2.40;;;6.50;91.50;;;;;;5013329;28;20109;-87
2020/12/04 07:32:49;;;;;;;4.05;2.22;;;6.50;91.70;;;;;;5016372;28;20022;-86
2020/12/04 07:35:14;;;;;;;4.50;2.65;;;6.60;91.70;;;;;;5015016;28;20034;-87
2020/12/04 07:37:40;;;;;;;4.57;2.50;;;6.60;91.50;;;;;;4998334;28;20033;-86
2020/12/04 07:40:06;;;;;;;4.15;2.33;;;6.60;91.60;;;;;;4998524;28;20489;-86
2020/12/04 07:42:31;;;;;;;3.72;2.13;;;6.60;91.30;;;;;;4998317;28;20079;-86
2020/12/04 07:44:57;;;;;;;3.53;2.38;;;6.60;91.50;;;;;;5015086;28;20026;-86
2020/12/04 07:47:23;;;;;;;3.78;2.03;;;6.60;91.50;;;;;;5014706;28;20117;-86
2020/12/04 07:49:54;;;;;;;3.78;2.28;;;6.70;91.40;;;;;;5014936;28;20026;-86
2020/12/04 07:52:22;;;;;;;4.72;2.40;;;6.70;91.40;;;;;;5010029;28;20132;-86
2020/12/04 07:55:00;;;;;;;3.47;2.03;;;6.70;91.30;;;;;;5006750;28;20020;-86
2020/12/04 07:57:32;;;;;;;4.72;2.60;;;6.70;91.40;;;;;;5014359;28;20482;-87
2020/12/04 07:59:58;;;;;;;3.55;2.05;;;6.70;91.10;;;;;;5014679;28;20113;-85
2020/12/04 08:02:26;;;;;;;2.92;1.80;;;6.60;91.20;;;;;;5015618;28;20025;-86
2020/12/04 08:04:53;;;;;;;4.28;2.00;;;6.70;91.40;;;;;;5014340;28;20064;-87
2020/12/04 08:07:19;;;;;;;4.03;1.95;;;6.70;91.40;;;;;;5014122;28;20482;-86
2020/12/04 08:09:45;;;;;;;2.42;1.67;;;6.70;91.40;;;;;;4997566;28;20088;-86
2020/12/04 08:12:21;;;;;;;3.67;2.22;;;6.70;91.30;;;;;;4998664;28;20442;-86
2020/12/04 08:14:55;;;;;;;3.17;1.90;;;6.70;91.50;;;;;;5015190;28;20057;-86
2020/12/04 08:17:28;;;;;;;2.92;1.90;;;6.70;91.40;;;;;;5003933;28;20113;-86
2020/12/04 08:19:55;;;;;;;3.20;2.03;;;6.80;91.60;;;;;;5012682;28;20024;-85
2020/12/04 08:22:34;;;;;;;2.67;1.88;;;6.80;91.20;;;;;;5010097;28;20077;-85
2020/12/04 08:25:05;;;;;;;3.47;2.05;;;6.70;91.30;;;;;;4993077;28;20546;-85
2020/12/04 08:27:40;;;;;;;3.25;1.83;;;6.80;91.40;;;;;;5003254;28;20026;-86
2020/12/04 08:30:18;;;;;;;3.60;2.08;;;6.80;91.30;;;;;;5008119;28;20432;-85
2020/12/04 08:32:47;;;;;;;4.50;2.45;;;6.70;91.30;;;;;;5013008;28;20378;-85
2020/12/04 08:35:35;;;;;;;3.95;2.00;;;6.80;91.30;;;;;;5010060;28;20542;-84
2020/12/04 08:38:14;;;;;;;3.60;2.10;;;6.70;91.40;;;;;;5011042;28;20018;-85
2020/12/04 08:40:42;;;;;;;4.28;2.20;;;6.80;91.50;;;;;;4998714;28;20365;-85
2020/12/04 08:43:24;;;;;;;4.50;2.28;;;6.80;91.80;;;;;;5011002;28;20030;-86
2020/12/04 08:45:53;;;;;;;6.10;2.78;;;6.70;91.40;;;;;;5000648;28;20029;-85
2020/12/04 08:48:28;;;;;;;12.25;2.55;;;6.80;91.50;;;;;;5000257;28;20124;-86
2020/12/04 08:51:01;;;;;;;3.72;2.08;;;6.80;91.40;;;;;;4999700;28;20033;-86
2020/12/04 08:53:27;;;;;;;2.63;1.70;;;6.80;91.40;;;;;;5013918;28;20026;-88
2020/12/04 08:55:55;;;;;;;4.20;2.00;;;6.80;91.30;;;;;;4993287;28;20217;-85
2020/12/04 08:58:22;;;;;;;2.25;1.80;;;6.80;91.40;;;;;;5006023;28;20026;-85
2020/12/04 09:00:50;;;;;;;3.85;1.75;;;6.90;91.40;;;;;;5012184;28;20058;-89
2020/12/04 09:03:17;;;;;;;2.45;1.60;;;6.90;91.60;;;;;;5002782;28;20386;-80
2020/12/04 09:05:42;;;;;;;3.45;1.65;;;7.00;91.70;;;;;;5008464;28;20042;-85
2020/12/04 09:08:09;;;;;;;5.53;1.60;;;7.00;91.70;;;;;;5013676;28;20452;-87
2020/12/04 09:10:36;;;;;;;3.08;1.73;;;7.00;91.60;;;;;;5012149;28;20374;-86
2020/12/04 09:13:02;;;;;;;2.47;1.50;;;7.10;91.70;;;;;;5016082;28;20120;-86
2020/12/04 09:15:29;;;;;;;5.25;1.90;;;7.10;91.50;;;;;;5021677;28;20544;-86
2020/12/04 09:17:55;;;;;;;2.75;1.60;;;7.20;91.50;;;;;;5011624;28;20440;-86
2020/12/04 09:20:21;;;;;;;2.78;1.60;;;7.20;91.40;;;;;;5000173;28;20029;-87
2020/12/04 09:22:47;;;;;;;4.18;1.45;;;7.30;91.40;;;;;;4987756;28;20057;-86
2020/12/04 09:25:16;;;;;;;3.20;1.38;;;7.30;91.40;;;;;;5002737;28;20073;-92
2020/12/04 09:27:42;;;;;;;2.58;1.50;;;7.30;91.30;;;;;;4990616;28;20033;-89
2020/12/04 09:30:13;;;;;;;2.40;1.45;;;7.40;91.30;;;;;;5010335;28;20093;-88
2020/12/04 09:32:42;;;;;;;4.25;2.03;;;7.40;91.50;;;;;;5006815;28;20018;-88
2020/12/04 09:35:08;;;;;;;3.20;1.23;;;7.40;91.50;;;;;;5009485;28;20028;-88
2020/12/04 09:37:36;;;;;;;3.22;1.40;;;7.50;91.40;;;;;;5002345;28;20109;-88
2020/12/04 09:40:14;;;;;;;1.63;1.08;;;7.50;91.70;;;;;;5003271;28;20014;-89
2020/12/04 09:42:40;;;;;;;2.15;1.30;;;7.50;91.30;;;;;;4996642;28;20026;-87
2020/12/04 09:45:07;;;;;;;2.10;1.30;;;7.60;91.40;;;;;;5010022;28;20040;-88
2020/12/04 09:47:34;;;;;;;2.70;1.30;;;7.60;91.40;;;;;;5012749;28;20462;-87
2020/12/04 09:50:00;;;;;;;2.75;1.40;;;7.60;91.40;;;;;;4995673;28;20045;-86
2020/12/04 09:52:26;;;;;;;2.67;1.00;;;7.60;91.50;;;;;;5011925;28;20470;-88
2020/12/04 09:54:52;;;;;;;1.30;0.80;;;7.60;91.20;;;;;;5006806;28;20036;-88
2020/12/04 09:57:18;;;;;;;1.83;0.75;;;7.60;90.70;;;;;;4991276;28;20030;-88
2020/12/04 09:59:44;;;;;;;4.75;0.90;;;7.70;90.60;;;;;;4993008;28;20092;-90
2020/12/04 10:02:11;;;;;;;1.17;0.70;;;7.60;90.30;;;;;;5023953;28;20026;-90
2020/12/04 10:04:38;;;;;;;1.38;0.65;;;7.70;89.90;;;;;;5014483;28;20084;-89
2020/12/04 10:07:04;;;;;;;2.33;0.63;;;7.70;89.70;;;;;;5014992;28;20034;-89
2020/12/04 10:09:30;;;;;;;4.97;0.88;;;7.70;89.50;;;;;;5010060;28;20042;-88
2020/12/04 10:11:56;;;;;;;0.65;0.45;;;7.70;89.90;;;;;;4996537;28;20821;-91
2020/12/04 10:14:24;;;;;;;1.85;0.40;;;7.70;87.50;;;;;;5012698;28;20053;-89
2020/12/04 10:16:50;;;;;;;0.57;0.30;;;7.80;87.60;;;;;;4998565;28;20116;-90
2020/12/04 10:19:17;;;;;;;0.52;0.30;;;7.80;87.10;;;;;;5006887;28;20021;-90
2020/12/04 10:21:43;;;;;;;0.30;0.30;;;7.80;87.80;;;;;;4994942;28;20081;-89
2020/12/04 10:24:10;;;;;;;1.77;0.40;;;7.80;86.80;;;;;;4998048;28;20498;-90
2020/12/04 10:26:40;;;;;;;2.05;0.22;;;7.80;86.90;;;;;;5010664;28;20061;-87
2020/12/04 10:29:07;;;;;;;1.60;0.40;;;7.80;86.40;;;;;;4996751;28;20028;-89
2020/12/04 10:31:33;;;;;;;1.35;0.43;;;7.80;86.30;;;;;;4999611;28;20076;-88
2020/12/04 10:33:59;;;;;;;1.23;0.50;;;7.80;86.50;;;;;;4980977;28;20045;-89
2020/12/04 10:36:27;;;;;;;1.77;0.40;;;7.90;86.90;;;;;;4993924;28;20497;-91
2020/12/04 10:38:57;;;;;;;8.07;0.50;;;7.90;85.50;;;;;;5001792;28;20076;-87
2020/12/04 10:41:22;;;;;;;0.60;0.30;;;7.90;84.80;;;;;;4994475;28;20541;-91
2020/12/04 10:43:49;;;;;;;0.75;0.35;;;7.90;85.20;;;;;;4991149;28;20045;-89
2020/12/04 10:46:15;;;;;;;0.50;0.35;;;8.00;85.50;;;;;;5002158;28;20030;-89
2020/12/04 10:48:41;;;;;;;1.08;0.55;;;8.00;83.50;;;;;;4992613;28;20034;-91
2020/12/04 10:51:07;;;;;;;0.60;0.32;;;8.10;82.60;;;;;;4993668;28;20037;-88
2020/12/04 10:53:32;;;;;;;0.25;0.20;;;8.00;81.30;;;;;;4991187;28;20121;-91
2020/12/04 10:55:58;;;;;;;1.52;0.52;;;8.00;80.80;;;;;;5011773;28;20034;-90
2020/12/04 10:58:23;;;;;;;0.38;0.28;;;8.00;80.40;;;;;;4976802;28;20034;-87
2020/12/04 11:00:50;;;;;;;1.08;0.30;;;7.90;80.40;;;;;;5014844;28;20034;-88
2020/12/04 11:05:47;;;;;;;0.50;0.40;;;8.10;82.40;;;;;;5003669;28;20050;-89
2020/12/04 11:08:13;;;;;;;0.60;0.40;;;8.20;79.70;;;;;;5001722;28;20022;-89
2020/12/04 11:10:40;;;;;;;0.75;0.20;;;8.10;78.60;;;;;;5024817;28;20096;-87
2020/12/04 11:13:06;;;;;;;0.85;0.28;;;8.10;77.30;;;;;;5002200;28;20032;-89
2020/12/04 11:15:32;;;;;;;1.17;0.50;;;8.20;79.20;;;;;;5017202;28;20022;-83
2020/12/04 11:17:58;;;;;;;0.50;0.20;;;8.20;79.10;;;;;;4996962;28;20049;-89
2020/12/04 11:20:24;;;;;;;0.90;0.28;;;8.30;80.30;;;;;;5014112;28;20041;-88
2020/12/04 11:22:51;;;;;;;2.30;0.63;;;8.50;77.90;;;;;;5003123;28;20381;-89
2020/12/04 11:25:17;;;;;;;1.63;0.40;;;8.50;78.80;;;;;;5007491;28;20041;-89
2020/12/04 11:27:47;;;;;;;1.67;0.30;;;8.60;78.60;;;;;;5006497;28;20108;-87
2020/12/04 11:30:15;;;;;;;0.27;0.20;;;8.60;77.90;;;;;;5003185;28;20030;-88
2020/12/04 11:32:42;;;;;;;0.63;0.50;;;8.60;78.30;;;;;;5000138;28;20037;-89
2020/12/04 11:35:08;;;;;;;1.75;0.40;;;8.70;78.90;;;;;;5007395;28;20102;-91
2020/12/04 11:37:35;;;;;;;0.68;0.30;;;8.70;78.90;;;;;;4996165;28;20022;-88
2020/12/04 11:40:05;;;;;;;0.90;0.50;;;8.60;78.10;;;;;;5006079;28;20022;-87
2020/12/04 11:42:31;;;;;;;1.83;0.80;;;8.60;76.50;;;;;;5013376;28;20018;-88
2020/12/04 11:44:57;;;;;;;1.48;0.63;;;8.60;76.50;;;;;;4977215;28;20486;-87
2020/12/04 11:47:25;;;;;;;0.95;0.47;;;8.60;76.90;;;;;;5009274;28;20359;-88
2020/12/04 11:49:51;;;;;;;1.38;0.50;;;8.50;76.40;;;;;;5009486;28;20152;-91
2020/12/04 11:52:17;;;;;;;1.15;0.40;;;8.50;77.30;;;;;;5004161;28;20042;-91
2020/12/04 11:54:45;;;;;;;1.95;0.60;;;8.60;77.60;;;;;;4999794;28;20434;-90
2020/12/04 11:57:10;;;;;;;3.15;1.42;;;8.50;78.40;;;;;;5013659;28;20022;-91
2020/12/04 11:59:36;;;;;;;0.85;0.40;;;8.50;79.00;;;;;;5006678;28;20088;-92
2020/12/04 12:02:02;;;;;;;1.92;0.70;;;8.60;79.00;;;;;;5007377;28;20030;-90
2020/12/04 12:04:28;;;;;;;1.52;0.82;;;8.60;78.50;;;;;;4991471;28;20046;-89
2020/12/04 12:06:54;;;;;;;0.35;0.20;;;8.60;78.90;;;;;;4994150;28;20093;-85
2020/12/04 12:09:20;;;;;;;0.30;0.30;;;8.60;79.10;;;;;;4999962;28;20031;-88
2020/12/04 12:11:45;;;;;;;1.27;0.40;;;8.60;77.70;;;;;;5000032;28;20483;-88
2020/12/04 12:14:11;;;;;;;4.15;0.40;;;8.70;78.50;;;;;;5011968;28;20048;-90
2020/12/04 12:16:37;;;;;;;2.42;0.50;;;8.80;78.30;;;;;;5006349;28;20050;-90
2020/12/04 12:19:03;;;;;;;0.73;0.40;;;8.80;78.80;;;;;;4994259;28;20109;-89
2020/12/04 12:21:29;;;;;;;3.13;1.00;;;8.90;77.50;;;;;;5020513;28;20376;-90
2020/12/04 12:23:54;;;;;;;2.00;0.60;;;8.90;78.20;;;;;;5016494;28;20030;-92
2020/12/04 12:26:20;;;;;;;0.85;0.40;;;8.90;77.50;;;;;;5010873;28;20038;-90
2020/12/04 12:28:46;;;;;;;1.83;0.60;;;8.90;77.80;;;;;;5007161;28;20049;-87
2020/12/04 12:31:12;;;;;;;1.35;0.63;;;8.90;79.30;;;;;;5017416;28;20026;-93
2020/12/04 12:33:38;;;;;;;0.60;0.57;;;8.90;77.40;;;;;;5015482;28;20030;-94
2020/12/04 12:36:04;;;;;;;1.63;0.82;;;8.90;77.40;;;;;;5015164;28;20044;-93
2020/12/04 12:38:30;;;;;;;1.52;0.50;;;8.90;77.80;;;;;;5016464;28;20038;-86
2020/12/04 12:40:57;;;;;;;1.45;0.57;;;8.90;76.70;;;;;;5003198;28;20034;-89
2020/12/04 12:43:22;;;;;;;4.15;0.55;;;9.00;77.20;;;;;;5006929;28;20137;-89
2020/12/04 12:45:48;;;;;;;1.08;0.35;;;9.00;75.90;;;;;;5013990;28;20109;-92
2020/12/04 12:48:14;;;;;;;0.85;0.40;;;9.00;75.00;;;;;;4994177;28;20052;-91
2020/12/04 12:50:40;;;;;;;0.82;0.30;;;9.00;75.30;;;;;;5009516;28;20038;-94
2020/12/04 12:53:05;;;;;;;0.73;0.40;;;9.00;75.80;;;;;;4988883;28;20067;-91
2020/12/04 12:55:31;;;;;;;1.23;0.40;;;9.00;75.70;;;;;;5020617;28;20037;-92
2020/12/04 12:57:56;;;;;;;0.95;0.30;;;9.00;75.10;;;;;;4989654;28;20025;-91
2020/12/04 13:00:22;;;;;;;1.20;0.35;;;9.10;75.80;;;;;;5007289;28;20026;-94